Time;durP1;ratioP1;P1;durP2;ratioP2;P2;SDS_P1;SDS_P2;PMS_P1;PMS_P2;Temp;Humidity;BMP_temperature;BMP_pressure;BME280_temperature;BME280_humidity;BME280_pressure;Samples;Min_cycle;Max_cycle;Signal;HPM_P1;HPM_P2
2021/01/23 00:01:49;;;;;;;;;;;3.00;99.90;;;;;;5097805;28;19915;-70
2021/01/23 00:04:15;;;;;;;;;;;3.20;99.90;;;;;;5097346;28;20330;-70
2021/01/23 00:06:41;;;;;;;;;;;3.70;99.90;;;;;;5097511;28;20363;-70
2021/01/23 00:09:06;;;;;;;;;;;3.60;99.90;;;;;;5097511;28;19926;-70
2021/01/23 00:11:32;;;;;;;;;;;3.70;99.90;;;;;;5097609;28;19999;-70
2021/01/23 00:13:58;;;;;;;;;;;4.10;99.90;;;;;;5097242;28;19911;-69
2021/01/23 00:16:24;;;;;;;;;;;3.30;99.90;;;;;;5097495;28;19904;-70
2021/01/23 00:18:49;;;;;;;;;;;3.60;99.90;;;;;;5097390;28;20306;-70
2021/01/23 00:21:15;;;;;;;;;;;3.60;99.90;;;;;;5097090;28;19919;-69
2021/01/23 00:23:40;;;;;;;;;;;3.90;99.90;;;;;;5097182;28;19994;-70
2021/01/23 00:26:06;;;;;;;;;;;3.80;99.90;;;;;;5097424;28;19908;-69
2021/01/23 00:28:33;;;;;;;;;;;3.90;99.90;;;;;;5097378;28;19954;-70
2021/01/23 00:30:59;;;;;;;;;;;3.70;99.90;;;;;;5097348;28;19911;-70
2021/01/23 00:33:25;;;;;;;;;;;4.20;99.90;;;;;;5097196;28;19986;-70
2021/01/23 00:35:51;;;;;;;;;;;4.30;99.90;;;;;;5097403;28;19950;-70
2021/01/23 00:38:17;;;;;;;;;;;4.40;99.90;;;;;;5096862;28;19949;-70
2021/01/23 00:40:42;;;;;;;;;;;4.20;99.90;;;;;;5096762;28;19904;-70
2021/01/23 00:43:08;;;;;;;;;;;4.50;99.90;;;;;;5097519;28;19912;-70
2021/01/23 00:45:33;;;;;;;;;;;4.40;99.90;;;;;;5100827;28;19926;-70
2021/01/23 00:48:06;;;;;;;;;;;4.50;99.90;;;;;;5101057;28;19916;-69
2021/01/23 00:50:31;;;;;;;;;;;4.50;99.90;;;;;;5101336;28;19904;-71
2021/01/23 00:52:57;;;;;;;;;;;4.60;99.90;;;;;;5101169;28;19910;-70
2021/01/23 00:55:23;;;;;;;;;;;4.70;99.90;;;;;;5101474;28;19943;-70
2021/01/23 00:57:48;;;;;;;;;;;4.40;99.90;;;;;;5101164;28;19908;-70
2021/01/23 01:00:15;;;;;;;;;;;4.80;99.90;;;;;;5101226;28;19911;-69
2021/01/23 01:02:40;;;;;;;;;;;5.20;99.90;;;;;;5100804;28;19955;-69
2021/01/23 01:05:06;;;;;;;;;;;4.90;99.90;;;;;;5100960;28;19911;-70
2021/01/23 01:07:32;;;;;;;;;;;4.90;99.90;;;;;;5100688;28;19904;-70
2021/01/23 01:09:58;;;;;;;;;;;5.10;99.90;;;;;;5100946;28;19911;-70
2021/01/23 01:12:23;;;;;;;;;;;4.90;99.90;;;;;;5100680;28;19910;-72
2021/01/23 01:14:49;;;;;;;;;;;4.90;99.90;;;;;;5101023;28;19973;-70
2021/01/23 01:17:15;;;;;;;;;;;5.40;99.90;;;;;;5100767;28;20430;-70
2021/01/23 01:19:41;;;;;;;;;;;5.60;99.90;;;;;;5100837;28;20379;-71
2021/01/23 01:22:07;;;;;;;;;;;5.60;99.90;;;;;;5100251;28;20275;-70
2021/01/23 01:24:33;;;;;;;;;;;5.10;99.90;;;;;;5100616;28;19904;-70
2021/01/23 01:26:59;;;;;;;;;;;5.50;99.90;;;;;;5100561;28;19904;-71
2021/01/23 01:29:24;;;;;;;;;;;5.80;99.90;;;;;;5100856;28;19904;-70
2021/01/23 01:31:50;;;;;;;;;;;5.60;99.90;;;;;;5100595;28;19958;-70
2021/01/23 01:34:16;;;;;;;;;;;5.90;99.90;;;;;;5100357;28;19904;-71
2021/01/23 01:36:41;;;;;;;;;;;5.90;99.90;;;;;;5098783;28;19997;-70
2021/01/23 01:39:07;;;;;;;;;;;5.80;99.90;;;;;;5100617;28;19904;-71
2021/01/23 01:41:35;;;;;;;;;;;5.70;99.90;;;;;;5100148;28;19947;-71
2021/01/23 01:44:01;;;;;;;;;;;5.70;99.90;;;;;;5100379;28;19915;-70
2021/01/23 01:46:26;;;;;;;;;;;5.40;99.90;;;;;;5100233;28;19904;-70
2021/01/23 01:48:52;;;;;;;;;;;5.90;99.90;;;;;;5099981;28;19916;-70
2021/01/23 01:51:18;;;;;;;;;;;5.60;99.90;;;;;;5099771;28;19940;-70
2021/01/23 01:53:44;;;;;;;;;;;5.50;99.90;;;;;;5099664;28;20521;-70
2021/01/23 01:56:10;;;;;;;;;;;5.20;99.90;;;;;;5099984;28;19904;-70
2021/01/23 01:58:35;;;;;;;;;;;5.30;99.90;;;;;;5100172;28;20003;-70
2021/01/23 02:01:01;;;;;;;;;;;5.50;99.90;;;;;;5099779;28;19904;-70
2021/01/23 02:03:39;;;;;;;;;;;5.50;99.90;;;;;;5099876;28;19903;-70
2021/01/23 02:06:10;;;;;;;;;;;5.40;99.90;;;;;;5099354;28;19959;-70
2021/01/23 02:08:43;;;;;;;;;;;5.50;99.90;;;;;;5099920;28;19911;-70
2021/01/23 02:11:15;;;;;;;;;;;5.20;99.90;;;;;;5099623;28;20260;-70
2021/01/23 02:13:45;;;;;;;;;;;5.20;99.90;;;;;;5099627;28;19911;-70
2021/01/23 02:16:27;;;;;;;;;;;5.20;99.90;;;;;;5099823;28;19929;-70
2021/01/23 02:18:56;;;;;;;;;;;5.20;99.90;;;;;;5099604;28;19904;-70
2021/01/23 02:21:40;;;;;;;;;;;5.80;99.90;;;;;;5099613;28;19915;-70
2021/01/23 02:24:08;;;;;;;;;;;5.30;99.90;;;;;;5099405;28;20387;-70
2021/01/23 02:26:37;;;;;;;;;;;5.40;99.90;;;;;;5099637;28;19904;-70
2021/01/23 02:29:07;;;;;;;;;;;5.50;99.90;;;;;;5099523;28;19905;-70
2021/01/23 02:31:37;;;;;;;;;;;5.60;99.90;;;;;;5099327;28;19904;-70
2021/01/23 02:34:03;;;;;;;;;;;5.50;99.90;;;;;;5099212;28;20398;-70
2021/01/23 02:36:30;;;;;;;;;;;5.30;99.90;;;;;;5098958;28;19911;-70
2021/01/23 02:38:56;;;;;;;;;;;5.50;99.90;;;;;;5099361;28;19904;-70
2021/01/23 02:41:22;;;;;;;;;;;5.30;99.90;;;;;;5099116;28;19914;-70
2021/01/23 02:43:47;;;;;;;;;;;5.60;99.90;;;;;;5099181;28;20443;-70
2021/01/23 02:46:18;;;;;;;;;;;5.40;99.90;;;;;;5099010;28;19957;-70
2021/01/23 02:48:44;;;;;;;;;;;5.60;99.90;;;;;;5098706;28;20307;-70
2021/01/23 02:51:30;;;;;;;;;;;5.50;99.90;;;;;;5098749;28;19905;-70
2021/01/23 02:53:59;;;;;;;;;;;5.60;99.90;;;;;;5098639;28;19904;-71
2021/01/23 02:56:25;;;;;;;;;;;5.40;99.90;;;;;;5098940;28;20427;-70
2021/01/23 02:58:52;;;;;;;;;;;5.60;99.90;;;;;;5097582;28;20014;-70
2021/01/23 03:01:20;;;;;;;;;;;5.50;99.90;;;;;;5098582;28;19912;-70
2021/01/23 03:03:46;;;;;;;;;;;5.90;99.90;;;;;;5098635;28;19908;-70
2021/01/23 03:06:12;;;;;;;;;;;5.40;99.90;;;;;;5097544;28;20382;-70
2021/01/23 03:08:43;;;;;;;;;;;5.50;99.90;;;;;;5098642;28;19904;-70
2021/01/23 03:11:08;;;;;;;;;;;5.50;99.90;;;;;;5098477;28;19994;-70
2021/01/23 03:13:34;;;;;;;;;;;5.60;99.90;;;;;;5097037;28;19935;-71
2021/01/23 03:16:00;;;;;;;;;;;5.30;99.90;;;;;;5098421;28;19915;-70
2021/01/23 03:18:25;;;;;;;;;;;5.70;99.90;;;;;;5097336;28;19926;-70
2021/01/23 03:20:51;;;;;;;;;;;5.50;99.90;;;;;;5098507;28;19970;-70
2021/01/23 03:23:17;;;;;;;;;;;5.40;99.90;;;;;;5098147;28;20253;-70
2021/01/23 03:25:42;;;;;;;;;;;5.60;99.90;;;;;;5098187;28;20307;-70
2021/01/23 03:28:08;;;;;;;;;;;5.50;99.90;;;;;;5098344;28;20003;-70
2021/01/23 03:30:34;;;;;;;;;;;5.40;99.90;;;;;;5098215;28;20440;-70
2021/01/23 03:32:59;;;;;;;;;;;5.30;99.90;;;;;;5098205;28;19904;-70
2021/01/23 03:35:25;;;;;;;;;;;5.30;99.90;;;;;;5097914;28;19986;-70
2021/01/23 03:37:51;;;;;;;;;;;5.50;99.90;;;;;;5098185;28;19915;-70
2021/01/23 03:40:17;;;;;;;;;;;5.10;99.90;;;;;;5097931;28;19911;-70
2021/01/23 03:42:42;;;;;;;;;;;5.30;99.90;;;;;;5097955;28;19908;-70
2021/01/23 03:45:09;;;;;;;;;;;5.10;99.90;;;;;;5097833;28;20269;-70
2021/01/23 03:47:35;;;;;;;;;;;5.30;99.90;;;;;;5096420;28;19931;-70
2021/01/23 03:50:02;;;;;;;;;;;5.30;99.90;;;;;;5097612;28;19908;-70
2021/01/23 03:52:27;;;;;;;;;;;5.50;99.90;;;;;;5096550;28;20367;-70
2021/01/23 03:54:53;;;;;;;;;;;5.40;99.90;;;;;;5097777;28;20292;-70
2021/01/23 03:57:20;;;;;;;;;;;5.30;99.90;;;;;;5098276;28;19926;-70
2021/01/23 03:59:45;;;;;;;;;;;5.40;99.90;;;;;;5096343;28;19904;-70
2021/01/23 04:02:11;;;;;;;;;;;5.40;99.90;;;;;;5097720;28;19922;-70
2021/01/23 04:04:36;;;;;;;;;;;5.60;99.90;;;;;;5097474;28;19995;-70
2021/01/23 04:07:02;;;;;;;;;;;5.50;99.90;;;;;;5097559;28;19926;-70
2021/01/23 04:09:28;;;;;;;;;;;5.40;99.90;;;;;;5097395;28;19975;-70
2021/01/23 04:11:54;;;;;;;;;;;5.80;99.90;;;;;;5097687;28;19961;-69
2021/01/23 04:14:20;;;;;;;;;;;5.40;99.90;;;;;;5097598;28;19992;-69
2021/01/23 04:16:49;;;;;;;;;;;5.40;99.90;;;;;;5097464;28;19904;-69
2021/01/23 04:19:16;;;;;;;;;;;5.10;99.90;;;;;;5096052;28;19908;-69
2021/01/23 04:21:41;;;;;;;;;;;5.10;99.90;;;;;;5097044;28;20057;-69
2021/01/23 04:24:07;;;;;;;;;;;5.20;99.90;;;;;;5097350;28;19935;-69
2021/01/23 04:26:33;;;;;;;;;;;5.30;99.90;;;;;;5097476;28;20271;-70
2021/01/23 04:28:59;;;;;;;;;;;5.30;99.90;;;;;;5097326;28;19959;-70
2021/01/23 04:31:24;;;;;;;;;;;5.10;99.90;;;;;;5097456;28;19904;-70
2021/01/23 04:33:50;;;;;;;;;;;5.20;99.90;;;;;;5097281;28;20011;-69
2021/01/23 04:36:16;;;;;;;;;;;5.10;99.90;;;;;;5097105;28;19911;-69
2021/01/23 04:38:41;;;;;;;;;;;5.00;99.90;;;;;;5097257;28;19995;-70
2021/01/23 04:41:07;;;;;;;;;;;5.00;99.90;;;;;;5097176;28;19904;-70
2021/01/23 04:43:32;;;;;;;;;;;5.10;99.90;;;;;;5097052;28;19911;-70
2021/01/23 04:45:58;;;;;;;;;;;4.80;99.90;;;;;;5097351;28;19908;-69
2021/01/23 04:48:24;;;;;;;;;;;4.90;99.90;;;;;;5096960;28;19916;-70
2021/01/23 04:50:50;;;;;;;;;;;5.10;99.90;;;;;;5097440;28;19908;-70
2021/01/23 04:53:15;;;;;;;;;;;4.90;99.90;;;;;;5096792;28;19910;-70
2021/01/23 04:55:44;;;;;;;;;;;5.10;99.90;;;;;;5097096;28;19903;-69
2021/01/23 04:58:10;;;;;;;;;;;5.00;99.90;;;;;;5097070;28;19926;-70
2021/01/23 05:00:36;;;;;;;;;;;5.20;99.90;;;;;;5097023;28;20368;-69
2021/01/23 05:03:02;;;;;;;;;;;5.30;99.90;;;;;;5095633;28;19908;-70
2021/01/23 05:05:28;;;;;;;;;;;5.70;99.90;;;;;;5096888;28;20279;-70
2021/01/23 05:08:04;;;;;;;;;;;5.40;99.90;;;;;;5096897;28;19904;-69
2021/01/23 05:10:30;;;;;;;;;;;5.40;99.90;;;;;;5097137;28;19904;-70
2021/01/23 05:12:56;;;;;;;;;;;5.70;99.90;;;;;;5096801;28;19957;-70
2021/01/23 05:15:22;;;;;;;;;;;5.60;99.90;;;;;;5096888;28;19963;-70
2021/01/23 05:17:57;;;;;;;;;;;5.70;99.90;;;;;;5096872;28;20346;-69
2021/01/23 05:20:41;;;;;;;;;;;5.30;99.90;;;;;;5096724;28;19908;-70
2021/01/23 05:23:07;;;;;;;;;;;5.70;99.90;;;;;;5096562;28;19908;-70
2021/01/23 05:25:33;;;;;;;;;;;5.30;99.90;;;;;;5096511;28;19911;-70
2021/01/23 05:28:00;;;;;;;;;;;5.40;99.90;;;;;;5096923;28;19974;-70
2021/01/23 05:30:37;;;;;;;;;;;5.40;99.90;;;;;;5099978;28;19904;-69
2021/01/23 05:33:10;;;;;;;;;;;5.30;99.90;;;;;;5100627;28;20045;-69
2021/01/23 05:35:37;;;;;;;;;;;5.10;99.90;;;;;;5100533;28;19962;-69
2021/01/23 05:38:18;;;;;;;;;;;5.10;99.90;;;;;;5100324;28;19990;-69
2021/01/23 05:40:44;;;;;;;;;;;4.90;99.90;;;;;;5100460;28;20360;-69
2021/01/23 05:43:09;;;;;;;;;;;5.20;99.90;;;;;;5100286;28;19930;-69
2021/01/23 05:45:35;;;;;;;;;;;4.90;99.90;;;;;;5100439;28;19943;-69
2021/01/23 05:48:07;;;;;;;;;;;5.10;99.90;;;;;;5100003;28;20011;-69
2021/01/23 05:50:33;;;;;;;;;;;4.70;99.90;;;;;;5100216;28;19957;-69
2021/01/23 05:52:59;;;;;;;;;;;4.70;99.90;;;;;;5099830;28;19907;-69
2021/01/23 05:55:26;;;;;;;;;;;4.90;99.90;;;;;;5100149;28;19904;-69
2021/01/23 05:57:53;;;;;;;;;;;4.50;99.90;;;;;;5100053;28;20413;-69
2021/01/23 06:00:20;;;;;;;;;;;4.60;99.90;;;;;;5100067;28;19904;-70
2021/01/23 06:02:46;;;;;;;;;;;4.60;99.90;;;;;;5097992;28;19960;-70
2021/01/23 06:05:13;;;;;;;;;;;4.50;99.90;;;;;;5099069;28;19950;-70
2021/01/23 06:07:43;;;;;;;;;;;4.20;99.90;;;;;;5098679;28;19948;-70
2021/01/23 06:10:23;;;;;;;;;;;4.30;99.90;;;;;;5099382;28;20449;-69
2021/01/23 06:12:50;;;;;;;;;;;4.50;99.90;;;;;;5100108;28;20036;-70
2021/01/23 06:15:35;;;;;;;;;;;4.40;99.90;;;;;;5099813;28;19908;-69
2021/01/23 06:18:01;;;;;;;;;;;4.10;99.90;;;;;;5099760;28;19995;-69
2021/01/23 06:20:42;;;;;;;;;;;4.20;99.90;;;;;;5099467;28;19904;-69
2021/01/23 06:23:08;;;;;;;;;;;3.80;99.90;;;;;;5099328;28;19929;-69
2021/01/23 06:25:49;;;;;;;;;;;3.70;99.90;;;;;;5099433;28;20322;-69
2021/01/23 06:28:15;;;;;;;;;;;3.80;99.90;;;;;;5099262;28;19954;-70
2021/01/23 06:30:41;;;;;;;;;;;3.60;99.90;;;;;;5099664;28;19908;-69
2021/01/23 06:33:22;;;;;;;;;;;3.20;99.90;;;;;;5099354;28;19904;-69
2021/01/23 06:36:06;;;;;;;;;;;3.00;99.90;;;;;;5099076;28;19926;-70
2021/01/23 06:38:32;;;;;;;;;;;3.60;99.90;;;;;;5099351;28;19904;-70
2021/01/23 06:41:17;;;;;;;;;;;3.40;99.90;;;;;;5098095;28;19954;-69
2021/01/23 06:44:08;;;;;;;;;;;3.20;99.90;;;;;;5099196;28;20424;-69
2021/01/23 06:46:35;;;;;;;;;;;3.30;99.90;;;;;;5098606;28;19994;-69
2021/01/23 06:49:03;;;;;;;;;;;3.40;99.90;;;;;;5098864;28;20084;-70
2021/01/23 06:51:29;;;;;;;;;;;3.20;99.90;;;;;;5098664;28;19911;-69
2021/01/23 06:54:13;;;;;;;;;;;3.10;99.90;;;;;;5099084;28;19904;-69
2021/01/23 06:56:49;;;;;;;;;;;3.50;99.90;;;;;;5099056;28;19957;-69
2021/01/23 06:59:28;;;;;;;;;;;3.10;99.90;;;;;;5099027;28;19962;-69
2021/01/23 07:01:57;;;;;;;;;;;3.40;99.90;;;;;;5098919;28;19956;-69
2021/01/23 07:04:23;;;;;;;;;;;3.30;99.90;;;;;;5098563;28;19904;-70
2021/01/23 07:06:49;;;;;;;;;;;3.50;99.90;;;;;;5098499;28;19904;-69
2021/01/23 07:09:15;;;;;;;;;;;3.60;99.90;;;;;;5098638;28;19911;-71
2021/01/23 07:11:40;;;;;;;;;;;3.90;99.90;;;;;;5097218;28;19907;-71
2021/01/23 07:14:06;;;;;;;;;;;4.10;99.90;;;;;;5097222;28;19908;-71
2021/01/23 07:16:33;;;;;;;;;;;3.50;99.90;;;;;;5097240;28;19904;-71
2021/01/23 07:19:00;;;;;;;;;;;3.60;99.90;;;;;;5098500;28;19957;-69
2021/01/23 07:21:26;;;;;;;;;;;3.60;99.90;;;;;;5098147;28;19908;-69
2021/01/23 07:23:52;;;;;;;;;;;3.90;99.90;;;;;;5098587;28;19903;-69
2021/01/23 07:26:18;;;;;;;;;;;3.70;99.90;;;;;;5098637;28;19947;-69
2021/01/23 07:28:44;;;;;;;;;;;4.00;99.90;;;;;;5098281;28;19904;-69
2021/01/23 07:31:36;;;;;;;;;;;4.00;99.90;;;;;;5098267;28;19912;-69
2021/01/23 07:34:09;;;;;;;;;;;4.30;99.90;;;;;;5097815;28;19926;-69
2021/01/23 07:36:36;;;;;;;;;;;4.40;99.90;;;;;;5098097;28;19999;-69
2021/01/23 07:39:12;;;;;;;;;;;4.50;99.90;;;;;;5098164;28;19904;-69
2021/01/23 07:41:40;;;;;;;;;;;4.60;99.90;;;;;;5097941;28;19961;-69
2021/01/23 07:44:09;;;;;;;;;;;5.10;99.90;;;;;;5098179;28;20348;-69
2021/01/23 07:46:35;;;;;;;;;;;4.90;99.90;;;;;;5097838;28;19982;-69
2021/01/23 07:49:01;;;;;;;;;;;4.70;99.90;;;;;;5097624;28;20494;-69
2021/01/23 07:51:27;;;;;;;;;;;4.60;99.90;;;;;;5097244;28;19962;-69
2021/01/23 07:54:03;;;;;;;;;;;4.80;99.90;;;;;;5098146;28;19904;-69
2021/01/23 07:56:29;;;;;;;;;;;4.70;99.90;;;;;;5097591;28;19911;-69
2021/01/23 07:58:54;;;;;;;;;;;4.60;99.90;;;;;;5097817;28;19904;-69
2021/01/23 08:01:20;;;;;;;;;;;4.60;99.90;;;;;;5097806;28;20423;-69
2021/01/23 08:03:45;;;;;;;;;;;4.80;99.90;;;;;;5097490;28;19904;-69
2021/01/23 08:06:21;;;;;;;;;;;4.40;99.90;;;;;;5097265;28;19926;-69
2021/01/23 08:08:48;;;;;;;;;;;4.70;99.90;;;;;;5097750;28;19911;-69
2021/01/23 08:11:32;;;;;;;;;;;4.70;99.90;;;;;;5097695;28;19911;-69
2021/01/23 08:14:08;;;;;;;;;;;4.80;99.90;;;;;;5094106;28;19904;-69
2021/01/23 08:16:34;;;;;;;;;;;4.80;99.90;;;;;;5097528;28;19911;-69
2021/01/23 08:19:06;;;;;;;;;;;4.70;99.90;;;;;;5097198;28;19971;-69
2021/01/23 08:21:31;;;;;;;;;;;4.70;99.90;;;;;;5097230;28;20003;-69
2021/01/23 08:23:57;;;;;;;;;;;5.00;99.90;;;;;;5097325;28;19961;-69
2021/01/23 08:26:43;;;;;;;;;;;4.80;99.90;;;;;;5097665;28;19904;-69
2021/01/23 08:29:17;;;;;;;;;;;4.80;99.90;;;;;;5097291;28;20042;-68
2021/01/23 08:31:58;;;;;;;;;;;5.10;99.90;;;;;;5091468;28;19912;-70
2021/01/23 08:34:24;;;;;;;;;;;5.20;99.90;;;;;;5085207;28;19915;-69
2021/01/23 08:36:50;;;;;;;;;;;5.50;99.90;;;;;;5095024;28;19995;-69
2021/01/23 08:39:15;;;;;;;;;;;5.60;99.90;;;;;;5096862;28;19904;-69
2021/01/23 08:41:41;;;;;;;;;;;6.00;99.90;;;;;;5096880;28;19912;-70
2021/01/23 08:44:07;;;;;;;;;;;5.90;99.90;;;;;;5097081;28;19912;-69
2021/01/23 08:46:32;;;;;;;;;;;6.00;99.90;;;;;;5096499;28;19935;-69
2021/01/23 08:48:59;;;;;;;;;;;6.10;99.90;;;;;;5096571;28;19987;-69
2021/01/23 08:51:25;;;;;;;;;;;6.20;99.90;;;;;;5095933;28;19991;-69
2021/01/23 08:53:50;;;;;;;;;;;6.30;99.90;;;;;;5095864;28;19992;-69
2021/01/23 08:56:16;;;;;;;;;;;6.50;99.90;;;;;;5097056;28;20393;-69
2021/01/23 08:58:42;;;;;;;;;;;6.40;99.90;;;;;;5097017;28;19915;-69
2021/01/23 09:01:08;;;;;;;;;;;6.20;99.90;;;;;;5096878;28;19911;-69
2021/01/23 09:03:34;;;;;;;;;;;6.80;99.90;;;;;;5097223;28;19904;-69
2021/01/23 09:05:59;;;;;;;;;;;6.40;99.90;;;;;;5100760;28;19911;-69
2021/01/23 09:08:25;;;;;;;;;;;6.50;99.90;;;;;;5101043;28;19951;-69
2021/01/23 09:10:50;;;;;;;;;;;6.50;99.90;;;;;;5101120;28;19908;-69
2021/01/23 09:13:16;;;;;;;;;;;6.60;99.90;;;;;;5100746;28;19991;-69
2021/01/23 09:15:42;;;;;;;;;;;6.80;99.90;;;;;;5100656;28;19915;-69
2021/01/23 09:18:08;;;;;;;;;;;6.90;99.90;;;;;;5101018;28;19949;-69
2021/01/23 09:20:33;;;;;;;;;;;7.10;99.90;;;;;;5100613;28;19949;-69
2021/01/23 09:22:59;;;;;;;;;;;6.90;99.90;;;;;;5100499;28;19915;-69
2021/01/23 09:25:24;;;;;;;;;;;7.00;99.90;;;;;;5100582;28;19911;-69
2021/01/23 09:27:50;;;;;;;;;;;6.70;99.90;;;;;;5100955;28;19957;-70
2021/01/23 09:30:16;;;;;;;;;;;6.70;99.90;;;;;;5100676;28;20283;-69
2021/01/23 09:32:42;;;;;;;;;;;6.70;99.90;;;;;;5100377;28;19908;-69
2021/01/23 09:35:09;;;;;;;;;;;6.70;99.90;;;;;;5100270;28;19904;-69
2021/01/23 09:37:34;;;;;;;;;;;7.00;99.90;;;;;;5100385;28;20256;-69
2021/01/23 09:40:01;;;;;;;;;;;7.30;99.90;;;;;;5099055;28;19979;-70
2021/01/23 09:42:27;;;;;;;;;;;7.20;99.90;;;;;;5100230;28;20344;-69
2021/01/23 09:44:52;;;;;;;;;;;7.00;99.90;;;;;;5100434;28;19944;-69
2021/01/23 09:47:18;;;;;;;;;;;6.60;99.90;;;;;;5100241;28;19912;-67
2021/01/23 09:49:44;;;;;;;;;;;6.50;99.90;;;;;;5100103;28;20378;-68
2021/01/23 09:52:09;;;;;;;;;;;6.40;99.90;;;;;;5093640;28;19908;-69
2021/01/23 09:54:35;;;;;;;;;;;6.60;99.90;;;;;;5092649;28;19935;-69
2021/01/23 09:57:02;;;;;;;;;;;7.10;99.90;;;;;;5099901;28;19904;-69
2021/01/23 09:59:27;;;;;;;;;;;7.50;99.90;;;;;;5099596;28;19961;-69
2021/01/23 10:01:53;;;;;;;;;;;7.40;99.90;;;;;;5098645;28;20329;-69
2021/01/23 10:04:19;;;;;;;;;;;7.20;99.90;;;;;;5099878;28;19908;-69
2021/01/23 10:06:44;;;;;;;;;;;6.90;99.90;;;;;;5099306;28;19903;-69
2021/01/23 10:09:10;;;;;;;;;;;6.60;99.90;;;;;;5094338;28;20318;-69
2021/01/23 10:11:36;;;;;;;;;;;6.50;99.90;;;;;;5090070;28;20356;-70
2021/01/23 10:14:01;;;;;;;;;;;6.80;99.90;;;;;;5099290;28;20423;-70
2021/01/23 10:16:27;;;;;;;;;;;6.30;99.90;;;;;;5099421;28;20269;-70
2021/01/23 10:18:53;;;;;;;;;;;6.40;99.90;;;;;;5099591;28;19973;-69
2021/01/23 10:21:18;;;;;;;;;;;6.10;99.90;;;;;;5096545;28;19927;-69
2021/01/23 10:23:44;;;;;;;;;;;6.40;99.90;;;;;;5096629;28;20268;-69
2021/01/23 10:26:10;;;;;;;;;;;5.80;99.90;;;;;;5088877;28;19949;-69
2021/01/23 10:28:35;;;;;;;;;;;5.90;99.90;;;;;;5098981;28;19904;-69
2021/01/23 10:31:01;;;;;;;;;;;6.30;99.90;;;;;;5099303;28;19961;-69
2021/01/23 10:33:26;;;;;;;;;;;6.20;99.90;;;;;;5099050;28;19904;-69
2021/01/23 10:35:52;;;;;;;;;;;6.30;99.90;;;;;;5099053;28;19915;-70
2021/01/23 10:38:18;;;;;;;;;;;6.20;99.90;;;;;;5099218;28;19904;-69
2021/01/23 10:40:44;;;;;;;;;;;6.30;99.90;;;;;;5099207;28;19908;-70
2021/01/23 10:43:10;;;;;;;;;;;6.40;99.90;;;;;;5086311;28;19915;-70
2021/01/23 10:45:36;;;;;;;;;;;6.40;99.90;;;;;;5099338;28;20310;-69
2021/01/23 10:48:01;;;;;;;;;;;6.30;99.90;;;;;;5097781;28;19923;-70
2021/01/23 10:50:27;;;;;;;;;;;6.40;99.90;;;;;;5098572;28;19927;-70
2021/01/23 10:52:53;;;;;;;;;;;6.40;99.90;;;;;;5098762;28;19904;-69
2021/01/23 10:55:18;;;;;;;;;;;8.10;99.90;;;;;;5099216;28;19926;-69
2021/01/23 10:57:44;;;;;;;;;;;6.90;99.90;;;;;;5098314;28;19904;-69
2021/01/23 11:00:10;;;;;;;;;;;6.80;99.90;;;;;;5098972;28;19904;-69
2021/01/23 11:02:39;;;;;;;;;;;6.70;99.90;;;;;;5098583;28;19908;-69
2021/01/23 11:05:05;;;;;;;;;;;6.70;99.90;;;;;;5098112;28;19911;-70
2021/01/23 11:07:31;;;;;;;;;;;7.10;99.90;;;;;;5098407;28;19904;-70
2021/01/23 11:09:57;;;;;;;;;;;8.00;99.90;;;;;;5098830;28;19911;-70
2021/01/23 11:12:22;;;;;;;;;;;6.90;99.90;;;;;;5096559;28;19995;-70
2021/01/23 11:14:48;;;;;;;;;;;6.90;99.90;;;;;;5090262;28;19953;-69
2021/01/23 11:17:14;;;;;;;;;;;7.20;99.90;;;;;;5093307;28;19954;-69
2021/01/23 11:19:39;;;;;;;;;;;7.10;99.90;;;;;;5097291;28;19957;-67
2021/01/23 11:22:05;;;;;;;;;;;7.70;99.90;;;;;;5097133;28;20377;-69
2021/01/23 11:24:31;;;;;;;;;;;7.60;99.90;;;;;;5098544;28;19904;-69
2021/01/23 11:26:57;;;;;;;;;;;7.40;99.90;;;;;;5097832;28;19919;-69
2021/01/23 11:29:22;;;;;;;;;;;7.60;99.90;;;;;;5098461;28;19904;-70
2021/01/23 11:31:48;;;;;;;;;;;7.60;99.90;;;;;;5098372;28;19954;-69
2021/01/23 11:34:14;;;;;;;;;;;7.90;99.90;;;;;;5098175;28;19911;-69
2021/01/23 11:36:39;;;;;;;;;;;8.30;99.90;;;;;;5098057;28;20371;-70
2021/01/23 11:39:05;;;;;;;;;;;8.30;99.90;;;;;;5098215;28;19908;-69
2021/01/23 11:41:31;;;;;;;;;;;8.20;99.90;;;;;;5097980;28;19951;-70
2021/01/23 11:43:56;;;;;;;;;;;8.20;99.90;;;;;;5097987;28;20374;-69
2021/01/23 11:46:22;;;;;;;;;;;8.30;99.90;;;;;;5098195;28;19904;-69
2021/01/23 11:48:48;;;;;;;;;;;7.90;99.90;;;;;;5097645;28;19916;-70
2021/01/23 11:51:13;;;;;;;;;;;7.80;99.90;;;;;;5097615;28;19908;-69
2021/01/23 11:53:39;;;;;;;;;;;7.60;99.90;;;;;;5097765;28;19939;-65
2021/01/23 11:56:05;;;;;;;;;;;7.60;99.90;;;;;;5096681;28;19904;-69
2021/01/23 11:58:30;;;;;;;;;;;7.60;99.90;;;;;;5098220;28;19912;-69
2021/01/23 12:00:56;;;;;;;;;;;7.70;99.90;;;;;;5097648;28;20284;-69
2021/01/23 12:03:22;;;;;;;;;;;7.60;99.90;;;;;;5097883;28;20283;-69
2021/01/23 12:05:47;;;;;;;;;;;7.80;99.90;;;;;;5097384;28;20307;-69
2021/01/23 12:08:13;;;;;;;;;;;7.80;99.90;;;;;;5097843;28;20276;-69
2021/01/23 12:10:39;;;;;;;;;;;8.10;99.90;;;;;;5097546;28;19911;-69
2021/01/23 12:13:04;;;;;;;;;;;7.70;99.90;;;;;;5097589;28;19904;-69
2021/01/23 12:15:30;;;;;;;;;;;7.50;99.90;;;;;;5097410;28;20014;-69
2021/01/23 12:17:56;;;;;;;;;;;7.70;99.90;;;;;;5097645;28;19904;-69
2021/01/23 12:20:22;;;;;;;;;;;7.50;99.90;;;;;;5097280;28;20322;-69
2021/01/23 12:22:48;;;;;;;;;;;7.50;99.90;;;;;;5097002;28;19908;-69
2021/01/23 12:25:14;;;;;;;;;;;7.80;99.90;;;;;;5097306;28;19918;-69
2021/01/23 12:27:39;;;;;;;;;;;8.40;99.90;;;;;;5097439;28;19904;-68
2021/01/23 12:30:06;;;;;;;;;;;9.00;99.90;;;;;;5097297;28;20279;-69
2021/01/23 12:32:32;;;;;;;;;;;9.70;99.90;;;;;;5097351;28;19953;-69
2021/01/23 12:34:58;;;;;;;;;;;10.20;99.90;;;;;;5097226;28;19926;-69
2021/01/23 12:37:23;;;;;;;;;;;10.50;99.90;;;;;;5097190;28;19904;-68
2021/01/23 12:39:49;;;;;;;;;;;10.80;99.90;;;;;;5097304;28;19904;-69
2021/01/23 12:42:14;;;;;;;;;;;10.20;99.90;;;;;;5097248;28;20006;-69
2021/01/23 12:44:40;;;;;;;;;;;9.50;99.90;;;;;;5097095;28;20061;-69
2021/01/23 12:47:06;;;;;;;;;;;9.00;99.90;;;;;;5097188;28;19911;-69
2021/01/23 12:49:31;;;;;;;;;;;8.80;99.90;;;;;;5096918;28;19908;-69
2021/01/23 12:51:57;;;;;;;;;;;8.80;99.90;;;;;;5097064;28;19904;-68
2021/01/23 12:54:23;;;;;;;;;;;9.10;99.90;;;;;;5096967;28;19911;-69
2021/01/23 12:56:50;;;;;;;;;;;9.50;99.90;;;;;;5097304;28;19904;-69
2021/01/23 12:59:17;;;;;;;;;;;9.90;99.90;;;;;;5096964;28;19958;-69
2021/01/23 13:01:42;;;;;;;;;;;9.80;99.90;;;;;;5097124;28;19918;-69
2021/01/23 13:04:08;;;;;;;;;;;9.60;99.90;;;;;;5096586;28;20361;-69
2021/01/23 13:06:34;;;;;;;;;;;9.40;99.90;;;;;;5096962;28;20287;-69
2021/01/23 13:09:00;;;;;;;;;;;9.00;99.90;;;;;;5096897;28;19939;-69
2021/01/23 13:11:25;;;;;;;;;;;9.00;99.90;;;;;;5096960;28;19904;-69
2021/01/23 13:13:51;;;;;;;;;;;9.00;99.90;;;;;;5096952;28;19908;-69
2021/01/23 13:16:17;;;;;;;;;;;8.80;99.90;;;;;;5095663;28;19912;-68
2021/01/23 13:18:47;;;;;;;;;;;8.40;99.90;;;;;;5096722;28;19919;-69
2021/01/23 13:21:13;;;;;;;;;;;8.40;99.90;;;;;;5096548;28;19935;-69
2021/01/23 13:23:39;;;;;;;;;;;8.30;99.90;;;;;;5096790;28;19908;-68
2021/01/23 13:26:08;;;;;;;;;;;8.40;99.90;;;;;;5096954;28;19977;-69
2021/01/23 13:28:34;;;;;;;;;;;8.30;99.90;;;;;;5096756;28;19904;-69
2021/01/23 13:31:00;;;;;;;;;;;8.60;99.90;;;;;;5096792;28;19911;-69
2021/01/23 13:33:25;;;;;;;;;;;8.10;99.90;;;;;;5096683;28;19910;-69
2021/01/23 13:35:51;;;;;;;;;;;7.90;99.90;;;;;;5096744;28;19951;-69
2021/01/23 13:38:17;;;;;;;;;;;7.60;99.90;;;;;;5096666;28;20390;-69
2021/01/23 13:40:42;;;;;;;;;;;7.30;99.90;;;;;;5096749;28;19904;-69
2021/01/23 13:43:08;;;;;;;;;;;7.20;99.90;;;;;;5096452;28;19916;-69
2021/01/23 13:45:33;;;;;;;;;;;7.20;99.90;;;;;;5096676;28;20307;-69
2021/01/23 13:47:59;;;;;;;;;;;7.30;99.90;;;;;;5096464;28;19946;-69
2021/01/23 13:50:25;;;;;;;;;;;7.40;99.90;;;;;;5097919;28;19903;-69
2021/01/23 13:52:50;;;;;;;;;;;7.60;99.90;;;;;;5100376;28;19999;-69
2021/01/23 13:55:16;;;;;;;;;;;7.60;99.90;;;;;;5100418;28;19904;-69
2021/01/23 13:57:42;;;;;;;;;;;7.90;99.90;;;;;;5099974;28;19908;-69
2021/01/23 14:00:08;;;;;;;;;;;7.70;99.90;;;;;;5100179;28;19903;-69
2021/01/23 14:02:33;;;;;;;;;;;8.50;99.90;;;;;;5099861;28;19908;-69
2021/01/23 14:04:59;;;;;;;;;;;8.90;99.90;;;;;;5099927;28;19908;-69
2021/01/23 14:07:24;;;;;;;;;;;9.40;99.90;;;;;;5098312;28;20337;-69
2021/01/23 14:09:50;;;;;;;;;;;10.10;99.90;;;;;;5100110;28;19946;-69
2021/01/23 14:12:16;;;;;;;;;;;10.30;99.90;;;;;;5099891;28;20291;-69
2021/01/23 14:14:41;;;;;;;;;;;9.80;99.90;;;;;;5099885;28;19908;-69
2021/01/23 14:17:07;;;;;;;;;;;9.50;99.90;;;;;;5099697;28;19904;-69
2021/01/23 14:19:33;;;;;;;;;;;9.30;99.90;;;;;;5099737;28;19904;-69
2021/01/23 14:21:58;;;;;;;;;;;9.20;99.90;;;;;;5099328;28;19912;-69
2021/01/23 14:24:24;;;;;;;;;;;8.90;99.90;;;;;;5099617;28;19930;-69
2021/01/23 14:26:50;;;;;;;;;;;8.90;99.90;;;;;;5099818;28;19908;-69
2021/01/23 14:29:15;;;;;;;;;;;8.70;99.90;;;;;;5099538;28;19973;-69